CYQY

Sydney / J.A. Douglas McCurdy Airport

Sydney, Nova Scotia, Canada
METAR CYQY 232200Z 13006KT 15SM FEW030 FEW160 FEW240 M07/M12 A3043 RMK CU1AC1CI1 CU TR AC TR SLP310
Observed Flight Rules
Feb-23 @ 22:00 UTC (34 minutes ago) Visual Flight Rules
Wind Visibility Clouds
130° at 6 knots 15 miles
  • Few at 3,000' AGL
  • Few at 16,000' AGL
  • Few at 24,000' AGL
Temperatures Readings
Current -7°C / 19°F
Dewpoint -12°C / 10°F
Humidity 68%
Altimeter 30.43" Hg
Pressure 1031 hPa
Elevation 62
METAR CYQY 232200Z 13006KT 15SM FEW030 FEW160 FEW240 M07/M12 A3043 RMK CU1AC1CI1 CU TR AC TR SLP310
Observed Flight Rules
Feb-23 @ 22:00 UTC
(34 minutes ago)
VFR
Wind Visibility
130° at 6 knots 15 miles
Clouds
  • Few at 3,000' AGL
  • Few at 16,000' AGL
  • Few at 24,000' AGL
Temperature Dewpoint
-7°C / 19°F -12°C / 10°F
Humidity Altimeter Pressure
68% 30.43" Hg 1031 hPa